Main page
METAR-TAF:

METAR-TAF

Airports :

Lal Bahadur Shastri International Airport

Varanasi, India

latitude: 25-27N, longitude: 082-52E, elevation: 81 m

Current weather observation

The report was made 3 hours and 5 minutes ago, at 18:00 UTC
Calm wind
Temperature 15°C
Humidity 100%
Pressure 1014 hPa
Visibility: 1800 m
mist

METAR: VEBN 011800Z 00000KT 1800 BR NSC 15/15 Q1014 NOSIG

Time: 02:35 (21:05 UTC)

Forecast

The report was made 1 hour and 5 minutes ago, at 20:00 UTC
Forecast valid from 01 at 21 UTC to 02 at 06 UTC
Wind kt from the North
Visibility: 1000 m
mist
Becoming
from 02 at 00 UTC to 02 at 02 UTC
Visibility: 0500 m
fog
Becoming
from 02 at 04 UTC to 02 at 06 UTC
Visibility: 1500 m
mist

TAF: VEBN 012000Z 0121/0206 00000KT 1000 BR NSC BECMG 0200/0202 0500 FG BECMG 0204/0206 1500 BR

Weather observations and forecasts of more than 4000 airports (METAR and TAF reports).

The available stations are represented by yellow and red dots on the map.

Hover mouse over dot to see the name of the station.

Then click to see weather observations and forecasts.

To change the map : click on the green buttons with a black cross to zoom in, on the green button with a dash to zoom out, or on the green arrows for adjacent maps.


METAR-TAF: